createdAt,value
2022-08-09T00:00:23.111Z,38.80
2022-08-09T00:02:52.155Z,39.00
2022-08-09T00:06:17.445Z,39.50
2022-08-09T00:08:11.455Z,39.80
2022-08-09T00:10:42.881Z,39.90
2022-08-09T00:13:17.633Z,39.80
2022-08-09T00:15:59.041Z,40.20
2022-08-09T00:18:30.254Z,40.30
2022-08-09T00:20:59.551Z,40.10
2022-08-09T00:23:55.643Z,40.00
2022-08-09T00:26:16.898Z,40.10
2022-08-09T00:28:52.389Z,40.30
2022-08-09T00:31:58.381Z,40.40
2022-08-09T00:34:32.686Z,39.90
2022-08-09T00:37:02.094Z,40.10
2022-08-09T00:40:14.160Z,40.10
2022-08-09T00:44:15.996Z,40.00
2022-08-09T00:45:15.969Z,39.80
2022-08-09T00:47:45.472Z,39.80
2022-08-09T00:50:14.479Z,39.80
2022-08-09T00:52:43.947Z,39.60
2022-08-09T00:55:32.880Z,39.60
2022-08-09T00:58:01.941Z,40.20
2022-08-09T01:00:35.098Z,40.60
2022-08-09T01:03:14.640Z,39.90
2022-08-09T01:05:53.878Z,40.20
2022-08-09T01:08:34.845Z,40.10
2022-08-09T01:11:17.395Z,40.60
2022-08-09T01:13:59.823Z,40.60
2022-08-09T01:16:36.040Z,40.50
2022-08-09T01:19:16.989Z,40.60
2022-08-09T01:22:16.660Z,40.50
2022-08-09T01:24:56.672Z,40.80
2022-08-09T01:27:29.249Z,40.70
2022-08-09T01:30:01.188Z,40.90
2022-08-09T01:32:34.259Z,41.20
2022-08-09T01:35:28.840Z,40.90
2022-08-09T01:38:08.478Z,41.00
2022-08-09T01:40:43.570Z,40.90
2022-08-09T01:43:14.469Z,40.80
2022-08-09T01:45:46.188Z,41.20
2022-08-09T01:48:17.429Z,41.10
2022-08-09T01:50:49.208Z,41.00
2022-08-09T01:53:23.951Z,41.00
2022-08-09T01:55:58.448Z,41.00
2022-08-09T01:58:31.041Z,40.80
2022-08-09T02:01:00.881Z,40.80
2022-08-09T02:03:32.363Z,41.60
2022-08-09T02:06:06.648Z,41.00
2022-08-09T02:08:57.976Z,41.00
2022-08-09T02:11:42.920Z,41.10
2022-08-09T02:14:25.605Z,41.00
2022-08-09T02:16:59.873Z,41.20
2022-08-09T02:19:44.088Z,41.00
2022-08-09T02:22:31.833Z,40.90
2022-08-09T02:25:06.774Z,41.10
2022-08-09T02:27:58.276Z,41.10
2022-08-09T02:30:29.998Z,41.30
2022-08-09T02:33:01.273Z,41.50
2022-08-09T02:36:02.826Z,41.60
2022-08-09T02:38:28.976Z,41.60
2022-08-09T02:41:04.369Z,41.70
2022-08-09T02:43:53.553Z,41.80
2022-08-09T02:46:27.500Z,42.00
2022-08-09T02:49:00.139Z,42.30
2022-08-09T02:51:37.234Z,42.50
2022-08-09T02:54:10.017Z,43.00
2022-08-09T02:56:39.073Z,43.10
2022-08-09T02:59:09.048Z,43.50
2022-08-09T03:01:42.557Z,43.40
2022-08-09T03:04:19.379Z,44.20
2022-08-09T03:06:49.258Z,43.90
2022-08-09T03:09:21.346Z,44.00
2022-08-09T03:12:05.341Z,44.40
2022-08-09T03:14:36.772Z,44.60
2022-08-09T03:17:06.656Z,44.50
2022-08-09T03:19:59.000Z,44.50
2022-08-09T03:22:25.420Z,45.10
2022-08-09T03:25:06.749Z,45.30
2022-08-09T03:27:50.235Z,45.20
2022-08-09T03:30:29.217Z,45.30
2022-08-09T03:33:17.456Z,45.30
2022-08-09T03:36:13.570Z,45.50
2022-08-09T03:38:42.005Z,45.30
2022-08-09T03:41:15.059Z,45.50
2022-08-09T03:43:51.729Z,45.60
2022-08-09T03:46:33.905Z,45.70
2022-08-09T03:49:08.033Z,45.70
2022-08-09T03:51:57.588Z,45.60
2022-08-09T03:54:31.167Z,45.10
2022-08-09T03:57:18.369Z,45.10
2022-08-09T03:59:54.552Z,45.50
2022-08-09T04:02:26.840Z,45.40
2022-08-09T04:04:58.687Z,45.50
2022-08-09T04:07:47.083Z,45.80
2022-08-09T04:10:20.383Z,46.00
2022-08-09T04:12:51.081Z,46.10
2022-08-09T04:15:52.326Z,46.40
2022-08-09T04:18:09.446Z,46.40
2022-08-09T04:20:46.743Z,46.60
2022-08-09T04:23:16.906Z,46.70
2022-08-09T04:25:52.282Z,46.80
2022-08-09T04:28:33.916Z,46.60
2022-08-09T04:31:09.510Z,46.70
2022-08-09T04:33:51.847Z,46.90
2022-08-09T04:36:24.835Z,47.30
2022-08-09T04:38:53.279Z,46.70
2022-08-09T04:41:23.862Z,46.50
2022-08-09T04:44:05.961Z,47.70
2022-08-09T04:46:58.862Z,47.40
2022-08-09T04:49:40.309Z,47.50
2022-08-09T04:52:27.499Z,47.50
2022-08-09T04:54:56.528Z,47.50
2022-08-09T04:57:25.338Z,47.40
2022-08-09T04:59:55.186Z,47.00
2022-08-09T05:02:23.969Z,46.60
2022-08-09T05:04:56.193Z,46.70
2022-08-09T05:07:27.708Z,46.30
2022-08-09T05:09:57.739Z,46.40
2022-08-09T05:12:29.847Z,46.80
2022-08-09T05:14:59.102Z,46.30
2022-08-09T05:18:38.429Z,46.40
2022-08-09T05:20:15.086Z,45.90
2022-08-09T05:23:53.574Z,45.80
2022-08-09T05:25:32.784Z,46.00
2022-08-09T05:28:00.951Z,46.10
2022-08-09T05:30:31.241Z,45.90
2022-08-09T05:33:00.658Z,46.00
2022-08-09T05:35:29.962Z,46.00
2022-08-09T05:38:01.427Z,46.10
2022-08-09T05:40:29.678Z,46.70
2022-08-09T05:42:57.873Z,46.40
2022-08-09T05:45:26.194Z,47.00
2022-08-09T05:48:14.103Z,46.30
2022-08-09T05:50:51.346Z,46.00
2022-08-09T05:53:37.216Z,46.00
2022-08-09T05:56:22.247Z,45.50
2022-08-09T05:58:58.532Z,45.20
2022-08-09T06:01:33.953Z,45.90
2022-08-09T06:04:12.199Z,45.80
2022-08-09T06:06:45.187Z,45.70
2022-08-09T06:09:23.303Z,45.10
2022-08-09T06:12:08.312Z,45.00
2022-08-09T06:14:37.187Z,44.90
2022-08-09T06:17:09.890Z,45.00
2022-08-09T06:19:38.945Z,44.60
2022-08-09T06:22:15.357Z,44.40
2022-08-09T06:24:45.122Z,44.50
2022-08-09T06:27:15.642Z,44.40
2022-08-09T06:29:48.271Z,44.80
2022-08-09T06:32:59.409Z,43.90
2022-08-09T06:35:15.364Z,44.80
2022-08-09T06:37:52.924Z,43.20
2022-08-09T06:40:33.437Z,43.60
2022-08-09T06:43:02.140Z,43.50
2022-08-09T06:46:05.576Z,43.00
2022-08-09T06:48:30.647Z,42.60
2022-08-09T06:51:00.178Z,43.10
2022-08-09T06:53:37.956Z,43.40
2022-08-09T06:56:09.724Z,41.00
2022-08-09T07:00:46.415Z,41.00
2022-08-09T07:01:35.746Z,42.10
2022-08-09T07:04:20.081Z,40.40
2022-08-09T07:06:48.419Z,38.60
2022-08-09T07:09:57.310Z,38.70
2022-08-09T07:12:13.744Z,38.60
2022-08-09T07:14:50.727Z,38.30
2022-08-09T07:17:19.786Z,38.00
2022-08-09T07:19:50.885Z,38.00
2022-08-09T07:22:34.357Z,37.10
2022-08-09T07:25:05.062Z,37.70
2022-08-09T07:27:42.979Z,37.40
2022-08-09T07:30:25.122Z,37.60
2022-08-09T07:32:54.759Z,37.80
2022-08-09T07:35:23.190Z,37.50
2022-08-09T07:37:54.040Z,37.30
2022-08-09T07:40:37.347Z,37.70
2022-08-09T07:43:17.737Z,38.10
2022-08-09T07:45:45.815Z,37.90
2022-08-09T07:48:25.888Z,38.50
2022-08-09T07:51:10.116Z,37.40
2022-08-09T07:54:06.829Z,37.60
2022-08-09T07:56:44.961Z,37.90
2022-08-09T07:59:25.393Z,38.30
2022-08-09T08:02:03.186Z,37.90
2022-08-09T08:04:33.380Z,38.00
2022-08-09T08:07:15.551Z,37.60
2022-08-09T08:09:55.193Z,38.80
2022-08-09T08:12:36.913Z,38.20
2022-08-09T08:15:07.892Z,38.20
2022-08-09T08:17:53.743Z,37.80
2022-08-09T08:20:30.214Z,38.10
2022-08-09T08:23:06.363Z,38.60
2022-08-09T08:25:49.870Z,38.20
2022-08-09T08:28:25.585Z,38.30
2022-08-09T08:31:10.611Z,38.10
2022-08-09T08:33:52.153Z,37.90
2022-08-09T08:36:29.763Z,38.20
2022-08-09T08:38:59.639Z,37.80
2022-08-09T08:41:50.328Z,38.00
2022-08-09T08:44:22.995Z,37.30
2022-08-09T08:47:02.406Z,38.40
2022-08-09T08:49:46.489Z,38.20
2022-08-09T08:52:52.683Z,37.30
2022-08-09T08:55:05.715Z,37.70
2022-08-09T08:57:35.229Z,37.90
2022-08-09T09:00:07.971Z,37.30
2022-08-09T09:02:50.091Z,37.30
2022-08-09T09:05:57.482Z,37.00
2022-08-09T09:08:29.951Z,36.70
2022-08-09T09:11:03.234Z,36.70
2022-08-09T09:13:41.759Z,36.20
2022-08-09T09:16:29.705Z,37.20
2022-08-09T09:22:04.190Z,36.00
2022-08-09T09:24:35.024Z,36.90
2022-08-09T09:27:07.220Z,36.70
2022-08-09T09:30:14.312Z,36.70
2022-08-09T09:32:35.084Z,36.50
2022-08-09T09:35:10.360Z,35.80
2022-08-09T09:37:41.533Z,35.90
2022-08-09T09:40:12.317Z,36.00
2022-08-09T09:42:42.900Z,35.70
2022-08-09T09:45:26.493Z,35.70
2022-08-09T09:47:58.681Z,35.10
2022-08-09T09:50:50.793Z,35.10
2022-08-09T09:53:21.500Z,34.60
2022-08-09T09:56:05.236Z,34.60
2022-08-09T09:58:46.537Z,35.20
2022-08-09T10:01:37.276Z,34.80
2022-08-09T10:04:15.953Z,34.50
2022-08-09T10:06:54.255Z,35.50
2022-08-09T10:09:24.141Z,34.90
2022-08-09T10:12:26.942Z,34.60
2022-08-09T10:14:53.239Z,35.30
2022-08-09T10:17:55.949Z,34.90
2022-08-09T10:20:33.095Z,34.10
2022-08-09T10:23:21.881Z,33.70
2022-08-09T10:26:08.021Z,34.00
2022-08-09T10:28:41.682Z,33.70
2022-08-09T10:34:09.235Z,33.50
2022-08-09T10:36:50.120Z,33.60
2022-08-09T10:39:23.422Z,32.50
2022-08-09T10:41:57.132Z,32.50
2022-08-09T10:44:30.425Z,31.70
2022-08-09T10:48:12.836Z,31.80
2022-08-09T10:50:26.957Z,31.60
2022-08-09T10:53:13.246Z,32.40
2022-08-09T10:55:57.826Z,31.50
2022-08-09T10:58:33.661Z,30.80
2022-08-09T11:03:03.351Z,30.70
2022-08-09T11:04:31.252Z,30.80
2022-08-09T11:07:56.679Z,30.20
2022-08-09T11:10:47.003Z,29.90
2022-08-09T11:13:54.158Z,29.70
2022-08-09T11:16:37.018Z,29.60
2022-08-09T11:19:10.401Z,30.40
2022-08-09T11:22:10.836Z,29.60
2022-08-09T11:25:09.834Z,30.00
2022-08-09T11:28:08.061Z,29.70
2022-08-09T11:30:38.033Z,29.20
2022-08-09T11:33:13.030Z,29.50
2022-08-09T11:35:49.854Z,28.70
2022-08-09T11:38:21.967Z,29.40
2022-08-09T11:40:52.841Z,29.50
2022-08-09T11:43:43.760Z,29.30
2022-08-09T11:46:18.468Z,29.10
2022-08-09T11:49:17.110Z,29.30
2022-08-09T11:53:03.552Z,29.40
2022-08-09T11:55:39.872Z,28.80
2022-08-09T11:58:48.125Z,29.50
2022-08-09T12:02:00.846Z,28.70
2022-08-09T12:04:23.670Z,29.80
2022-08-09T12:07:01.044Z,28.50
2022-08-09T12:09:33.644Z,28.50
2022-08-09T12:12:06.051Z,28.90
2022-08-09T12:15:07.323Z,28.60
2022-08-09T12:17:42.311Z,28.20
2022-08-09T12:20:21.938Z,28.60
2022-08-09T12:22:55.631Z,28.70
2022-08-09T12:25:37.998Z,27.70
2022-08-09T12:28:58.461Z,28.10
2022-08-09T12:31:02.977Z,28.90
2022-08-09T12:33:59.424Z,27.80
2022-08-09T12:36:51.700Z,27.40
2022-08-09T12:39:28.334Z,28.00
2022-08-09T12:42:09.191Z,28.00
2022-08-09T12:44:38.862Z,28.60
2022-08-09T12:47:11.441Z,27.50
2022-08-09T12:49:52.920Z,28.00
2022-08-09T12:52:21.706Z,27.10
2022-08-09T12:56:15.113Z,27.50
2022-08-09T12:57:59.786Z,27.50
2022-08-09T13:00:32.547Z,28.00
2022-08-09T13:03:03.488Z,27.50
2022-08-09T13:05:50.730Z,27.40
2022-08-09T13:08:39.718Z,27.40
2022-08-09T13:11:23.401Z,27.20
2022-08-09T13:14:40.893Z,27.20
2022-08-09T13:17:01.096Z,27.20
2022-08-09T13:20:10.277Z,26.50
2022-08-09T13:22:35.320Z,26.50
2022-08-09T13:25:07.993Z,26.60
2022-08-09T13:27:54.977Z,26.80
2022-08-09T13:30:50.841Z,26.70
2022-08-09T13:33:23.941Z,26.30
2022-08-09T13:36:39.553Z,26.80
2022-08-09T13:38:57.854Z,26.30
2022-08-09T13:41:57.551Z,26.30
2022-08-09T13:44:17.759Z,27.50
2022-08-09T13:47:26.962Z,27.00
2022-08-09T13:49:56.053Z,27.00
2022-08-09T13:52:25.342Z,26.00
2022-08-09T13:55:00.630Z,26.20
2022-08-09T13:57:35.546Z,26.20
2022-08-09T14:00:10.376Z,26.40
2022-08-09T14:02:42.862Z,26.40
2022-08-09T14:05:58.862Z,26.50
2022-08-09T14:08:17.859Z,25.90
2022-08-09T14:10:53.111Z,25.70
2022-08-09T14:14:16.511Z,25.60
2022-08-09T14:16:15.464Z,27.00
2022-08-09T14:18:49.700Z,25.70
2022-08-09T14:21:21.026Z,25.70
2022-08-09T14:23:54.576Z,25.70
2022-08-09T14:26:30.450Z,25.40
2022-08-09T14:29:07.783Z,25.80
2022-08-09T14:31:53.834Z,24.60
2022-08-09T14:34:27.479Z,25.00
2022-08-09T14:37:06.462Z,25.00
2022-08-09T14:39:45.795Z,24.80
2022-08-09T14:42:31.341Z,25.30
2022-08-09T14:45:01.543Z,25.60
2022-08-09T14:47:58.198Z,25.80
2022-08-09T14:50:30.609Z,25.50
2022-08-09T14:52:59.841Z,25.30
2022-08-09T14:55:29.130Z,25.60
2022-08-09T14:58:06.028Z,25.50
2022-08-09T15:00:36.709Z,25.60
2022-08-09T15:03:10.627Z,25.10
2022-08-09T15:05:39.677Z,25.40
2022-08-09T15:08:18.879Z,25.50
2022-08-09T15:11:00.329Z,25.30
2022-08-09T15:13:47.880Z,25.80
2022-08-09T15:16:19.705Z,25.10
2022-08-09T15:18:49.827Z,25.40
2022-08-09T15:22:01.843Z,25.50
2022-08-09T15:24:17.555Z,25.50
2022-08-09T15:26:48.885Z,25.40
2022-08-09T15:30:48.627Z,25.30
2022-08-09T15:32:28.672Z,24.80
2022-08-09T15:35:00.443Z,26.10
2022-08-09T15:37:57.233Z,26.50
2022-08-09T15:40:31.952Z,26.60
2022-08-09T15:43:02.462Z,26.90
2022-08-09T15:46:07.311Z,26.30
2022-08-09T15:48:28.775Z,25.70
2022-08-09T15:50:59.785Z,26.10
2022-08-09T15:54:03.801Z,25.20
2022-08-09T15:56:21.585Z,25.10
2022-08-09T15:58:56.901Z,24.70
2022-08-09T16:01:26.362Z,25.30
2022-08-09T16:03:59.232Z,25.00
2022-08-09T16:06:35.424Z,25.50
2022-08-09T16:09:05.969Z,24.90
2022-08-09T16:11:34.303Z,25.50
2022-08-09T16:14:07.101Z,25.90
2022-08-09T16:16:38.076Z,26.60
2022-08-09T16:19:07.766Z,26.50
2022-08-09T16:21:36.060Z,27.00
2022-08-09T16:24:04.808Z,26.50
2022-08-09T16:26:36.261Z,25.70
2022-08-09T16:29:11.489Z,25.90
2022-08-09T16:32:19.479Z,26.10
2022-08-09T16:34:56.791Z,26.00
2022-08-09T16:37:21.565Z,25.70
2022-08-09T16:40:09.590Z,26.00
2022-08-09T16:42:38.294Z,25.90
2022-08-09T16:45:07.992Z,25.40
2022-08-09T16:48:40.518Z,25.30
2022-08-09T16:50:33.941Z,25.30
2022-08-09T16:53:02.961Z,25.20
2022-08-09T16:56:00.171Z,25.60
2022-08-09T16:58:23.529Z,25.60
2022-08-09T17:00:59.563Z,25.80
2022-08-09T17:03:56.353Z,25.50
2022-08-09T17:07:03.983Z,26.10
2022-08-09T17:09:44.048Z,25.10
2022-08-09T17:12:26.244Z,25.30
2022-08-09T17:15:31.148Z,25.70
2022-08-09T17:18:10.733Z,25.20
2022-08-09T17:20:48.017Z,25.10
2022-08-09T17:23:20.431Z,24.70
2022-08-09T17:25:53.034Z,25.40
2022-08-09T17:28:21.487Z,25.10
2022-08-09T17:30:51.511Z,25.00
2022-08-09T17:33:22.221Z,23.80
2022-08-09T17:35:52.546Z,24.90
2022-08-09T17:38:30.690Z,24.40
2022-08-09T17:41:00.857Z,24.80
2022-08-09T17:43:34.139Z,25.50
2022-08-09T17:46:07.535Z,24.80
2022-08-09T17:48:38.993Z,25.20
2022-08-09T17:51:18.592Z,25.00
2022-08-09T17:53:52.175Z,25.10
2022-08-09T17:56:27.620Z,26.10
2022-08-09T17:58:58.146Z,25.50
2022-08-09T18:01:40.748Z,26.30
2022-08-09T18:04:16.881Z,27.30
2022-08-09T18:06:49.708Z,27.30
2022-08-09T18:09:25.232Z,27.80
2022-08-09T18:12:17.940Z,27.70
2022-08-09T18:14:58.498Z,27.90
2022-08-09T18:18:02.425Z,28.10
2022-08-09T18:20:59.520Z,28.00
2022-08-09T18:23:07.601Z,28.60
2022-08-09T18:25:50.031Z,28.50
2022-08-09T18:30:34.531Z,28.60
2022-08-09T18:31:10.225Z,28.60
2022-08-09T18:33:40.206Z,29.00
2022-08-09T18:36:14.340Z,28.90
2022-08-09T18:39:00.989Z,29.10
2022-08-09T18:41:34.952Z,28.80
2022-08-09T18:44:13.048Z,28.80
2022-08-09T18:46:49.544Z,29.20
2022-08-09T18:49:32.189Z,29.30
2022-08-09T18:52:10.228Z,29.40
2022-08-09T18:54:42.023Z,29.70
2022-08-09T18:57:18.133Z,29.60
2022-08-09T18:59:48.898Z,29.80
2022-08-09T19:02:20.588Z,30.00
2022-08-09T19:05:04.076Z,30.20
2022-08-09T19:07:40.848Z,30.30
2022-08-09T19:10:14.280Z,30.30
2022-08-09T19:12:55.097Z,30.20
2022-08-09T19:15:32.982Z,30.70
2022-08-09T19:18:02.048Z,30.80
2022-08-09T19:20:38.983Z,30.90
2022-08-09T19:23:08.082Z,30.90
2022-08-09T19:26:01.383Z,31.10
2022-08-09T19:28:28.795Z,31.10
2022-08-09T19:30:57.103Z,31.40
2022-08-09T19:33:25.313Z,31.30
2022-08-09T19:35:57.149Z,31.20
2022-08-09T19:38:28.094Z,31.40
2022-08-09T19:40:59.821Z,31.20
2022-08-09T19:44:00.667Z,31.20
2022-08-09T19:46:34.243Z,31.50
2022-08-09T19:50:06.556Z,31.90
2022-08-09T19:51:55.481Z,31.90
2022-08-09T19:54:24.961Z,31.80
2022-08-09T19:56:54.752Z,31.90
2022-08-09T19:59:57.677Z,32.10
2022-08-09T20:02:14.953Z,32.20
2022-08-09T20:05:09.749Z,32.30
2022-08-09T20:07:59.001Z,32.40
2022-08-09T20:10:28.011Z,32.40
2022-08-09T20:13:05.686Z,32.50
2022-08-09T20:16:32.900Z,32.60
2022-08-09T20:18:28.178Z,32.50
2022-08-09T20:20:56.678Z,32.40
2022-08-09T20:23:39.735Z,32.50
2022-08-09T20:26:09.735Z,32.50
2022-08-09T20:28:48.829Z,32.40
2022-08-09T20:31:18.432Z,32.30
2022-08-09T20:33:58.576Z,32.30
2022-08-09T20:36:30.456Z,32.20
2022-08-09T20:39:28.486Z,32.30
2022-08-09T20:41:49.098Z,32.40
2022-08-09T20:44:26.450Z,32.20
2022-08-09T20:46:55.426Z,32.10
2022-08-09T20:49:28.639Z,32.10
2022-08-09T20:51:56.970Z,32.10
2022-08-09T20:54:28.887Z,32.00
2022-08-09T20:56:57.652Z,32.30
2022-08-09T21:00:20.670Z,32.40
2022-08-09T21:02:18.417Z,32.60
2022-08-09T21:05:52.882Z,32.40
2022-08-09T21:07:40.126Z,32.60
2022-08-09T21:10:12.399Z,32.70
2022-08-09T21:15:35.037Z,32.40
2022-08-09T21:18:22.399Z,32.20
2022-08-09T21:20:54.408Z,32.30
2022-08-09T21:23:26.604Z,32.90
2022-08-09T21:26:12.541Z,32.10
2022-08-09T21:28:55.943Z,32.20
2022-08-09T21:31:48.563Z,31.80
2022-08-09T21:34:28.713Z,31.90
2022-08-09T21:36:58.120Z,31.80
2022-08-09T21:39:28.352Z,31.90
2022-08-09T21:42:11.180Z,32.20
2022-08-09T21:44:39.644Z,31.90
2022-08-09T21:47:17.363Z,32.30
2022-08-09T21:49:46.429Z,32.30
2022-08-09T21:52:20.672Z,32.30
2022-08-09T21:54:59.715Z,32.40
2022-08-09T21:57:39.437Z,32.20
2022-08-09T22:00:25.886Z,32.10
2022-08-09T22:02:59.235Z,32.30
2022-08-09T22:05:35.601Z,32.30
2022-08-09T22:08:07.002Z,32.40
2022-08-09T22:11:00.670Z,32.40
2022-08-09T22:13:34.466Z,32.40
2022-08-09T22:16:03.899Z,32.50
2022-08-09T22:18:33.449Z,32.70
2022-08-09T22:21:02.022Z,32.70
2022-08-09T22:23:58.682Z,32.70
2022-08-09T22:26:34.960Z,32.90
2022-08-09T22:29:07.445Z,32.90
2022-08-09T22:31:37.386Z,33.10
2022-08-09T22:34:09.850Z,33.10
2022-08-09T22:36:45.543Z,33.00
2022-08-09T22:39:46.645Z,33.10
2022-08-09T22:42:03.983Z,33.40
2022-08-09T22:44:45.602Z,33.10
2022-08-09T22:48:11.230Z,33.50
2022-08-09T22:50:03.605Z,33.20
2022-08-09T22:52:31.623Z,33.60
2022-08-09T22:55:00.164Z,34.30
2022-08-09T22:57:35.564Z,33.60
2022-08-09T23:00:06.768Z,33.60
2022-08-09T23:02:40.154Z,33.60
2022-08-09T23:05:14.683Z,33.60
2022-08-09T23:08:22.265Z,33.60
2022-08-09T23:10:46.286Z,33.70
2022-08-09T23:13:15.751Z,34.00
2022-08-09T23:16:02.703Z,33.90
2022-08-09T23:18:34.649Z,34.00
2022-08-09T23:21:04.071Z,33.90
2022-08-09T23:23:32.320Z,34.10
2022-08-09T23:26:00.445Z,34.60
2022-08-09T23:28:28.551Z,34.00
2022-08-09T23:30:56.512Z,34.10
2022-08-09T23:33:24.916Z,33.90
2022-08-09T23:36:07.018Z,34.10
2022-08-09T23:38:48.828Z,34.70
2022-08-09T23:41:28.518Z,34.10
2022-08-09T23:43:58.563Z,34.10
2022-08-09T23:46:26.776Z,34.30
2022-08-09T23:48:55.010Z,34.50
2022-08-09T23:51:23.008Z,34.40
2022-08-09T23:53:55.198Z,34.40
2022-08-09T23:56:53.588Z,34.60
2022-08-09T23:59:18.163Z,34.50
